sensor_id;sensor_type;location;lat;lon;timestamp;pressure;altitude;pressure_sealevel;temperature;humidity
31585;BME280;18191;51.288;12.390;2023-12-07T00:00:06;49255.50;;;-144.47;100.00
31585;BME280;18191;51.288;12.390;2023-12-07T00:04:57;49263.47;;;-144.47;99.45
31585;BME280;18191;51.288;12.390;2023-12-07T00:09:47;49241.59;;;-144.47;98.40
31585;BME280;18191;51.288;12.390;2023-12-07T00:14:38;49223.69;;;-144.47;99.01
31585;BME280;18191;51.288;12.390;2023-12-07T00:19:28;49235.63;;;-144.47;99.02
31585;BME280;18191;51.288;12.390;2023-12-07T00:24:18;49235.63;;;-144.47;99.45
31585;BME280;18191;51.288;12.390;2023-12-07T00:29:08;49239.59;;;-144.47;99.23
31585;BME280;18191;51.288;12.390;2023-12-07T00:33:59;49251.53;;;-144.47;99.34
31585;BME280;18191;51.288;12.390;2023-12-07T00:38:49;49227.66;;;-144.47;98.40
31585;BME280;18191;51.288;12.390;2023-12-07T00:43:39;49233.63;;;-144.47;98.27
31585;BME280;18191;51.288;12.390;2023-12-07T00:48:30;49233.63;;;-144.47;98.32
31585;BME280;18191;51.288;12.390;2023-12-07T00:53:20;49219.72;;;-144.47;98.42
31585;BME280;18191;51.288;12.390;2023-12-07T00:58:10;49251.53;;;-144.47;98.80
31585;BME280;18191;51.288;12.390;2023-12-07T01:03:00;49247.56;;;-144.47;98.54
31585;BME280;18191;51.288;12.390;2023-12-07T01:07:51;49251.53;;;-144.47;98.70
31585;BME280;18191;51.288;12.390;2023-12-07T01:12:41;49193.84;;;-144.47;98.67
31585;BME280;18191;51.288;12.390;2023-12-07T01:17:31;49219.72;;;-144.47;98.86
31585;BME280;18191;51.288;12.390;2023-12-07T01:22:21;49219.72;;;-144.47;98.86
31585;BME280;18191;51.288;12.390;2023-12-07T01:27:12;49227.66;;;-144.47;98.65
31585;BME280;18191;51.288;12.390;2023-12-07T01:32:02;49231.63;;;-144.47;98.83
31585;BME280;18191;51.288;12.390;2023-12-07T01:36:52;49239.59;;;-144.47;98.89
31585;BME280;18191;51.288;12.390;2023-12-07T01:41:43;49213.75;;;-144.47;99.10
31585;BME280;18191;51.288;12.390;2023-12-07T01:46:33;49239.59;;;-144.47;99.39
31585;BME280;18191;51.288;12.390;2023-12-07T01:51:24;49235.63;;;-144.47;99.15
31585;BME280;18191;51.288;12.390;2023-12-07T01:56:15;49211.75;;;-144.47;99.02
31585;BME280;18191;51.288;12.390;2023-12-07T02:01:06;49195.84;;;-144.47;97.38
31585;BME280;18191;51.288;12.390;2023-12-07T02:05:57;49243.56;;;-144.47;97.97
31585;BME280;18191;51.288;12.390;2023-12-07T02:10:48;49233.63;;;-144.47;98.13
31585;BME280;18191;51.288;12.390;2023-12-07T02:15:38;49231.63;;;-144.47;98.12
31585;BME280;18191;51.288;12.390;2023-12-07T02:20:37;49243.56;;;-144.47;97.65
31585;BME280;18191;51.288;12.390;2023-12-07T02:25:36;49239.59;;;-144.47;98.58
31585;BME280;18191;51.288;12.390;2023-12-07T02:30:27;49249.53;;;-144.47;97.49
31585;BME280;18191;51.288;12.390;2023-12-07T02:35:17;49195.84;;;-144.47;97.71
31585;BME280;18191;51.288;12.390;2023-12-07T02:40:09;49247.56;;;-144.47;98.49
31585;BME280;18191;51.288;12.390;2023-12-07T02:45:05;49277.41;;;-144.47;98.92
31585;BME280;18191;51.288;12.390;2023-12-07T02:49:55;49265.47;;;-144.47;98.78
31585;BME280;18191;51.288;12.390;2023-12-07T02:54:46;49263.47;;;-144.47;98.96
31585;BME280;18191;51.288;12.390;2023-12-07T02:59:36;49231.63;;;-144.47;98.21
31585;BME280;18191;51.288;12.390;2023-12-07T03:04:26;49185.88;;;-144.47;99.17
31585;BME280;18191;51.288;12.390;2023-12-07T03:09:16;49233.63;;;-144.47;99.51
31585;BME280;18191;51.288;12.390;2023-12-07T03:14:07;49243.56;;;-144.47;99.73
31585;BME280;18191;51.288;12.390;2023-12-07T03:18:57;49235.63;;;-144.47;99.46
31585;BME280;18191;51.288;12.390;2023-12-07T03:23:47;49225.66;;;-144.47;99.18
31585;BME280;18191;51.288;12.390;2023-12-07T03:28:39;49255.50;;;-144.47;99.46
31585;BME280;18191;51.288;12.390;2023-12-07T03:33:29;49229.66;;;-144.47;99.35
31585;BME280;18191;51.288;12.390;2023-12-07T03:38:19;49209.75;;;-144.47;99.87
31585;BME280;18191;51.288;12.390;2023-12-07T03:43:10;49227.66;;;-144.47;99.14
31585;BME280;18191;51.288;12.390;2023-12-07T03:48:00;49219.72;;;-144.47;99.04
31585;BME280;18191;51.288;12.390;2023-12-07T03:52:50;49265.47;;;-144.47;99.92
31585;BME280;18191;51.288;12.390;2023-12-07T03:57:41;49239.59;;;-144.47;99.25
31585;BME280;18191;51.288;12.390;2023-12-07T04:02:32;49223.69;;;-144.47;99.27
31585;BME280;18191;51.288;12.390;2023-12-07T04:07:23;49255.50;;;-144.47;99.66
31585;BME280;18191;51.288;12.390;2023-12-07T04:12:13;49259.50;;;-144.47;99.66
31585;BME280;18191;51.288;12.390;2023-12-07T04:17:04;49227.66;;;-144.47;98.78
31585;BME280;18191;51.288;12.390;2023-12-07T04:21:54;49251.53;;;-144.47;98.67
31585;BME280;18191;51.288;12.390;2023-12-07T04:26:44;49239.59;;;-144.47;99.63
31585;BME280;18191;51.288;12.390;2023-12-07T04:31:35;49219.72;;;-144.47;99.04
31585;BME280;18191;51.288;12.390;2023-12-07T04:36:25;49231.63;;;-144.47;98.28
31585;BME280;18191;51.288;12.390;2023-12-07T04:41:16;49255.50;;;-144.47;98.91
31585;BME280;18191;51.288;12.390;2023-12-07T04:46:06;49231.63;;;-144.47;98.36
31585;BME280;18191;51.288;12.390;2023-12-07T04:50:56;49235.63;;;-144.47;98.84
31585;BME280;18191;51.288;12.390;2023-12-07T04:55:46;49207.78;;;-144.47;98.93
31585;BME280;18191;51.288;12.390;2023-12-07T05:00:40;49233.63;;;-144.47;98.89
31585;BME280;18191;51.288;12.390;2023-12-07T05:05:30;49243.56;;;-144.47;98.44
31585;BME280;18191;51.288;12.390;2023-12-07T05:10:20;49265.47;;;-144.47;98.92
31585;BME280;18191;51.288;12.390;2023-12-07T05:15:11;49243.56;;;-144.47;98.73
31585;BME280;18191;51.288;12.390;2023-12-07T05:20:01;49203.78;;;-144.47;99.02
31585;BME280;18191;51.288;12.390;2023-12-07T05:24:52;49227.66;;;-144.47;99.68
31585;BME280;18191;51.288;12.390;2023-12-07T05:29:43;49225.66;;;-144.47;100.00
31585;BME280;18191;51.288;12.390;2023-12-07T05:34:33;49239.59;;;-144.47;100.00
31585;BME280;18191;51.288;12.390;2023-12-07T05:39:25;49271.44;;;-144.47;100.00
31585;BME280;18191;51.288;12.390;2023-12-07T05:44:15;49251.53;;;-144.47;100.00
31585;BME280;18191;51.288;12.390;2023-12-07T05:49:11;49227.66;;;-144.47;99.13
31585;BME280;18191;51.288;12.390;2023-12-07T05:54:02;49235.63;;;-144.47;99.31
31585;BME280;18191;51.288;12.390;2023-12-07T05:58:53;49199.81;;;-144.47;99.68
31585;BME280;18191;51.288;12.390;2023-12-07T06:03:43;49221.69;;;-144.47;99.48
31585;BME280;18191;51.288;12.390;2023-12-07T06:08:34;49235.63;;;-144.47;99.50
31585;BME280;18191;51.288;12.390;2023-12-07T06:13:24;49255.50;;;-144.47;99.19
31585;BME280;18191;51.288;12.390;2023-12-07T06:18:14;49235.63;;;-144.47;100.00
31585;BME280;18191;51.288;12.390;2023-12-07T06:23:05;49267.44;;;-144.47;99.59
31585;BME280;18191;51.288;12.390;2023-12-07T06:27:56;49209.75;;;-144.47;99.86
31585;BME280;18191;51.288;12.390;2023-12-07T06:32:47;49227.66;;;-144.47;99.47
31585;BME280;18191;51.288;12.390;2023-12-07T06:37:38;49233.63;;;-144.47;99.81
31585;BME280;18191;51.288;12.390;2023-12-07T06:42:29;49267.44;;;-144.47;100.00
31585;BME280;18191;51.288;12.390;2023-12-07T06:47:19;49239.59;;;-144.47;100.00
31585;BME280;18191;51.288;12.390;2023-12-07T06:52:10;49231.63;;;-144.47;100.00
31585;BME280;18191;51.288;12.390;2023-12-07T06:57:01;49251.53;;;-144.47;99.70
31585;BME280;18191;51.288;12.390;2023-12-07T07:01:51;49245.56;;;-144.47;99.72
31585;BME280;18191;51.288;12.390;2023-12-07T07:06:42;49227.66;;;-144.47;99.46
31585;BME280;18191;51.288;12.390;2023-12-07T07:11:32;49231.63;;;-144.47;99.69
31585;BME280;18191;51.288;12.390;2023-12-07T07:16:22;49247.56;;;-144.47;99.79
31585;BME280;18191;51.288;12.390;2023-12-07T07:21:13;49241.59;;;-144.47;98.98
31585;BME280;18191;51.288;12.390;2023-12-07T07:26:03;49217.72;;;-144.47;99.40
31585;BME280;18191;51.288;12.390;2023-12-07T07:30:53;49255.50;;;-144.47;99.52
31585;BME280;18191;51.288;12.390;2023-12-07T07:35:44;49239.59;;;-144.47;99.01
31585;BME280;18191;51.288;12.390;2023-12-07T07:40:34;49239.59;;;-144.47;99.50
31585;BME280;18191;51.288;12.390;2023-12-07T07:45:24;49239.59;;;-144.47;97.96
31585;BME280;18191;51.288;12.390;2023-12-07T07:50:15;49219.72;;;-144.47;97.80
31585;BME280;18191;51.288;12.390;2023-12-07T07:55:06;49263.47;;;-144.47;98.28
31585;BME280;18191;51.288;12.390;2023-12-07T07:59:57;49271.44;;;-144.47;97.05
31585;BME280;18191;51.288;12.390;2023-12-07T08:04:48;49211.75;;;-144.47;97.56
31585;BME280;18191;51.288;12.390;2023-12-07T08:09:38;49231.63;;;-144.47;96.82
31585;BME280;18191;51.288;12.390;2023-12-07T08:14:28;49229.66;;;-144.47;95.70
31585;BME280;18191;51.288;12.390;2023-12-07T08:19:19;49227.66;;;-144.47;95.81
31585;BME280;18191;51.288;12.390;2023-12-07T08:24:09;49257.50;;;-144.47;95.55
31585;BME280;18191;51.288;12.390;2023-12-07T08:28:59;49231.63;;;-144.47;95.38
31585;BME280;18191;51.288;12.390;2023-12-07T08:33:51;49243.56;;;-144.47;95.67
31585;BME280;18191;51.288;12.390;2023-12-07T08:38:41;49241.59;;;-144.47;94.88
31585;BME280;18191;51.288;12.390;2023-12-07T08:43:32;49209.75;;;-144.47;94.78
31585;BME280;18191;51.288;12.390;2023-12-07T08:48:22;49241.59;;;-144.47;95.68
31585;BME280;18191;51.288;12.390;2023-12-07T08:53:12;49229.66;;;-144.47;95.68
31585;BME280;18191;51.288;12.390;2023-12-07T08:58:03;49219.72;;;-144.47;95.92
31585;BME280;18191;51.288;12.390;2023-12-07T09:02:56;49203.78;;;-144.47;95.35
31585;BME280;18191;51.288;12.390;2023-12-07T09:07:47;49199.81;;;-144.47;95.00
31585;BME280;18191;51.288;12.390;2023-12-07T09:12:37;49227.66;;;-144.47;93.91
31585;BME280;18191;51.288;12.390;2023-12-07T09:17:28;49215.72;;;-144.47;94.98
31585;BME280;18191;51.288;12.390;2023-12-07T09:22:18;49243.56;;;-144.47;95.05
31585;BME280;18191;51.288;12.390;2023-12-07T09:27:08;49255.50;;;-144.47;94.88
31585;BME280;18191;51.288;12.390;2023-12-07T09:32:00;49241.59;;;-144.47;94.35
31585;BME280;18191;51.288;12.390;2023-12-07T09:37:05;49215.72;;;-144.47;93.96
31585;BME280;18191;51.288;12.390;2023-12-07T09:41:56;49237.59;;;-144.47;94.35
31585;BME280;18191;51.288;12.390;2023-12-07T09:46:46;49217.72;;;-144.47;92.80
31585;BME280;18191;51.288;12.390;2023-12-07T09:51:36;49211.75;;;-144.47;93.12
31585;BME280;18191;51.288;12.390;2023-12-07T09:56:27;49245.56;;;-144.47;93.13
31585;BME280;18191;51.288;12.390;2023-12-07T10:01:17;49231.63;;;-144.47;92.94
31585;BME280;18191;51.288;12.390;2023-12-07T10:06:07;49235.63;;;-144.47;92.86
31585;BME280;18191;51.288;12.390;2023-12-07T10:11:02;49227.66;;;-144.47;93.63
31585;BME280;18191;51.288;12.390;2023-12-07T10:16:11;49209.75;;;-144.47;91.75
31585;BME280;18191;51.288;12.390;2023-12-07T10:21:02;49187.88;;;-144.47;93.01
31585;BME280;18191;51.288;12.390;2023-12-07T10:25:53;49211.75;;;-144.47;91.72
31585;BME280;18191;51.288;12.390;2023-12-07T10:30:43;49243.56;;;-144.47;91.66
31585;BME280;18191;51.288;12.390;2023-12-07T10:35:43;49229.66;;;-144.47;91.13
31585;BME280;18191;51.288;12.390;2023-12-07T10:40:33;49249.53;;;-144.47;92.24
31585;BME280;18191;51.288;12.390;2023-12-07T10:45:29;49231.63;;;-144.47;90.83
31585;BME280;18191;51.288;12.390;2023-12-07T10:50:23;49205.78;;;-144.47;92.20
31585;BME280;18191;51.288;12.390;2023-12-07T10:55:16;49217.72;;;-144.47;92.38
31585;BME280;18191;51.288;12.390;2023-12-07T11:00:08;49241.59;;;-144.47;91.78
31585;BME280;18191;51.288;12.390;2023-12-07T11:05:00;49251.53;;;-144.47;91.58
31585;BME280;18191;51.288;12.390;2023-12-07T11:09:59;49215.72;;;-144.47;90.03
31585;BME280;18191;51.288;12.390;2023-12-07T11:14:50;49241.59;;;-144.47;89.39
31585;BME280;18191;51.288;12.390;2023-12-07T11:24:32;49235.63;;;-144.47;89.83
31585;BME280;18191;51.288;12.390;2023-12-07T11:29:28;49211.75;;;-144.47;89.19
31585;BME280;18191;51.288;12.390;2023-12-07T11:39:29;49233.63;;;-144.47;86.77
31585;BME280;18191;51.288;12.390;2023-12-07T11:44:19;49239.59;;;-144.47;88.53
31585;BME280;18191;51.288;12.390;2023-12-07T11:49:10;49251.53;;;-144.47;87.82
31585;BME280;18191;51.288;12.390;2023-12-07T11:54:01;49227.66;;;-144.47;88.44
31585;BME280;18191;51.288;12.390;2023-12-07T11:58:51;49195.84;;;-144.47;87.79
31585;BME280;18191;51.288;12.390;2023-12-07T12:03:42;49231.63;;;-144.47;87.85
31585;BME280;18191;51.288;12.390;2023-12-07T12:08:33;49255.50;;;-144.47;88.06
31585;BME280;18191;51.288;12.390;2023-12-07T12:13:33;49215.72;;;-144.47;87.04
31585;BME280;18191;51.288;12.390;2023-12-07T12:18:23;49247.56;;;-144.47;86.06
31585;BME280;18191;51.288;12.390;2023-12-07T12:23:15;49221.69;;;-144.47;86.06
31585;BME280;18191;51.288;12.390;2023-12-07T12:28:06;49235.63;;;-144.47;85.41
31585;BME280;18191;51.288;12.390;2023-12-07T12:32:57;49239.59;;;-144.47;85.87
31585;BME280;18191;51.288;12.390;2023-12-07T12:37:50;49227.66;;;-144.47;85.66
31585;BME280;18191;51.288;12.390;2023-12-07T12:42:42;49273.41;;;-144.47;83.36
31585;BME280;18191;51.288;12.390;2023-12-07T12:47:33;49219.72;;;-144.47;83.84
31585;BME280;18191;51.288;12.390;2023-12-07T12:52:24;49227.66;;;-144.47;84.95
31585;BME280;18191;51.288;12.390;2023-12-07T12:57:15;49211.75;;;-144.47;84.39
31585;BME280;18191;51.288;12.390;2023-12-07T13:02:06;49209.75;;;-144.47;84.47
31585;BME280;18191;51.288;12.390;2023-12-07T13:06:59;49251.53;;;-144.47;83.78
31585;BME280;18191;51.288;12.390;2023-12-07T13:11:51;49243.56;;;-144.47;83.30
31585;BME280;18191;51.288;12.390;2023-12-07T13:16:42;49223.69;;;-144.47;83.39
31585;BME280;18191;51.288;12.390;2023-12-07T13:21:32;49227.66;;;-144.47;83.30
31585;BME280;18191;51.288;12.390;2023-12-07T13:26:22;49215.72;;;-144.47;83.55
31585;BME280;18191;51.288;12.390;2023-12-07T13:31:13;49203.78;;;-144.47;84.30
31585;BME280;18191;51.288;12.390;2023-12-07T13:36:04;49219.72;;;-144.47;82.89
31585;BME280;18191;51.288;12.390;2023-12-07T13:40:54;49219.72;;;-144.47;82.57
31585;BME280;18191;51.288;12.390;2023-12-07T13:45:45;49207.78;;;-144.47;83.24
31585;BME280;18191;51.288;12.390;2023-12-07T13:50:35;49249.53;;;-144.47;81.55
31585;BME280;18191;51.288;12.390;2023-12-07T13:55:26;49211.75;;;-144.47;81.57
31585;BME280;18191;51.288;12.390;2023-12-07T14:00:16;49209.75;;;-144.47;80.98
31585;BME280;18191;51.288;12.390;2023-12-07T14:05:07;49235.63;;;-144.47;81.75
31585;BME280;18191;51.288;12.390;2023-12-07T14:09:57;49211.75;;;-144.47;81.08
31585;BME280;18191;51.288;12.390;2023-12-07T14:14:47;49211.75;;;-144.47;82.21
31585;BME280;18191;51.288;12.390;2023-12-07T14:19:38;49215.72;;;-144.47;82.57
31585;BME280;18191;51.288;12.390;2023-12-07T14:24:29;49221.69;;;-144.47;83.00
31585;BME280;18191;51.288;12.390;2023-12-07T14:29:20;49227.66;;;-144.47;83.46
31585;BME280;18191;51.288;12.390;2023-12-07T14:34:11;49183.91;;;-144.47;83.53
31585;BME280;18191;51.288;12.390;2023-12-07T14:39:03;49219.72;;;-144.47;82.64
31585;BME280;18191;51.288;12.390;2023-12-07T14:43:56;49207.78;;;-144.47;83.20
31585;BME280;18191;51.288;12.390;2023-12-07T14:48:47;49213.75;;;-144.47;83.32
31585;BME280;18191;51.288;12.390;2023-12-07T14:53:37;49227.66;;;-144.47;84.03
31585;BME280;18191;51.288;12.390;2023-12-07T14:58:27;49203.78;;;-144.47;84.70
31585;BME280;18191;51.288;12.390;2023-12-07T15:03:17;49227.66;;;-144.47;84.97
31585;BME280;18191;51.288;12.390;2023-12-07T15:08:08;49195.84;;;-144.47;85.38
31585;BME280;18191;51.288;12.390;2023-12-07T15:12:58;49203.78;;;-144.47;86.77
31585;BME280;18191;51.288;12.390;2023-12-07T15:17:49;49203.78;;;-144.47;87.63
31585;BME280;18191;51.288;12.390;2023-12-07T15:22:39;49245.56;;;-144.47;88.39
31585;BME280;18191;51.288;12.390;2023-12-07T15:27:30;49243.56;;;-144.47;89.69
31585;BME280;18191;51.288;12.390;2023-12-07T15:32:20;49247.56;;;-144.47;90.96
31585;BME280;18191;51.288;12.390;2023-12-07T15:37:10;49223.69;;;-144.47;92.33
31585;BME280;18191;51.288;12.390;2023-12-07T15:42:02;49203.78;;;-144.47;92.07
31585;BME280;18191;51.288;12.390;2023-12-07T15:46:52;49239.59;;;-144.47;92.89
31585;BME280;18191;51.288;12.390;2023-12-07T15:51:43;49243.56;;;-144.47;93.68
31585;BME280;18191;51.288;12.390;2023-12-07T15:56:39;49211.75;;;-144.47;93.50
31585;BME280;18191;51.288;12.390;2023-12-07T16:01:29;49265.47;;;-144.47;92.99
31585;BME280;18191;51.288;12.390;2023-12-07T16:06:20;49215.72;;;-144.47;92.95
31585;BME280;18191;51.288;12.390;2023-12-07T16:11:10;49251.53;;;-144.47;93.02
31585;BME280;18191;51.288;12.390;2023-12-07T16:16:00;49251.53;;;-144.47;92.86
31585;BME280;18191;51.288;12.390;2023-12-07T16:20:52;49235.63;;;-144.47;92.63
31585;BME280;18191;51.288;12.390;2023-12-07T16:25:42;49225.66;;;-144.47;92.62
31585;BME280;18191;51.288;12.390;2023-12-07T16:30:32;49247.56;;;-144.47;92.74
31585;BME280;18191;51.288;12.390;2023-12-07T16:35:23;49231.63;;;-144.47;92.97
31585;BME280;18191;51.288;12.390;2023-12-07T16:40:13;49239.59;;;-144.47;93.07
31585;BME280;18191;51.288;12.390;2023-12-07T16:45:05;49221.69;;;-144.47;92.74
31585;BME280;18191;51.288;12.390;2023-12-07T16:49:55;49215.72;;;-144.47;92.42
31585;BME280;18191;51.288;12.390;2023-12-07T16:54:45;49219.72;;;-144.47;92.56
31585;BME280;18191;51.288;12.390;2023-12-07T16:59:35;49195.84;;;-144.47;92.10
31585;BME280;18191;51.288;12.390;2023-12-07T17:04:26;49223.69;;;-144.47;92.68
31585;BME280;18191;51.288;12.390;2023-12-07T17:09:16;49279.38;;;-144.47;92.47
31585;BME280;18191;51.288;12.390;2023-12-07T17:14:07;49243.56;;;-144.47;91.87
31585;BME280;18191;51.288;12.390;2023-12-07T17:18:57;49179.91;;;-144.47;91.78
31585;BME280;18191;51.288;12.390;2023-12-07T17:23:48;49211.75;;;-144.47;91.31
31585;BME280;18191;51.288;12.390;2023-12-07T17:28:38;49237.59;;;-144.47;90.80
31585;BME280;18191;51.288;12.390;2023-12-07T17:33:28;49223.69;;;-144.47;89.51
31585;BME280;18191;51.288;12.390;2023-12-07T17:38:19;49219.72;;;-144.47;89.37
31585;BME280;18191;51.288;12.390;2023-12-07T17:43:09;49215.72;;;-144.47;89.59
31585;BME280;18191;51.288;12.390;2023-12-07T17:47:59;49237.59;;;-144.47;88.64
31585;BME280;18191;51.288;12.390;2023-12-07T17:52:49;49235.63;;;-144.47;89.15
31585;BME280;18191;51.288;12.390;2023-12-07T17:57:40;49227.66;;;-144.47;89.40
31585;BME280;18191;51.288;12.390;2023-12-07T18:02:30;49211.75;;;-144.47;88.87
31585;BME280;18191;51.288;12.390;2023-12-07T18:07:20;49207.78;;;-144.47;87.72
31585;BME280;18191;51.288;12.390;2023-12-07T18:12:12;49199.81;;;-144.47;88.01
31585;BME280;18191;51.288;12.390;2023-12-07T18:17:03;49219.72;;;-144.47;88.57
31585;BME280;18191;51.288;12.390;2023-12-07T18:21:53;49243.56;;;-144.47;88.81
31585;BME280;18191;51.288;12.390;2023-12-07T18:26:43;49211.75;;;-144.47;89.14
31585;BME280;18191;51.288;12.390;2023-12-07T18:31:34;49287.34;;;-144.47;89.64
31585;BME280;18191;51.288;12.390;2023-12-07T18:36:24;49225.66;;;-144.47;90.25
31585;BME280;18191;51.288;12.390;2023-12-07T18:41:15;49231.63;;;-144.47;90.64
31585;BME280;18191;51.288;12.390;2023-12-07T18:46:05;49211.75;;;-144.47;91.08
31585;BME280;18191;51.288;12.390;2023-12-07T18:50:56;49271.44;;;-144.47;90.61
31585;BME280;18191;51.288;12.390;2023-12-07T18:55:47;49235.63;;;-144.47;91.77
31585;BME280;18191;51.288;12.390;2023-12-07T19:00:37;49263.47;;;-144.47;92.74
31585;BME280;18191;51.288;12.390;2023-12-07T19:05:28;49263.47;;;-144.47;94.35
31585;BME280;18191;51.288;12.390;2023-12-07T19:10:18;49235.63;;;-144.47;94.69
31585;BME280;18191;51.288;12.390;2023-12-07T19:15:09;49207.78;;;-144.47;95.23
31585;BME280;18191;51.288;12.390;2023-12-07T19:20:00;49221.69;;;-144.47;95.69
31585;BME280;18191;51.288;12.390;2023-12-07T19:24:50;49247.56;;;-144.47;94.05
31585;BME280;18191;51.288;12.390;2023-12-07T19:29:42;49229.66;;;-144.47;94.13
31585;BME280;18191;51.288;12.390;2023-12-07T19:34:32;49191.84;;;-144.47;94.47
31585;BME280;18191;51.288;12.390;2023-12-07T19:39:23;49219.72;;;-144.47;94.49
31585;BME280;18191;51.288;12.390;2023-12-07T19:44:13;49243.56;;;-144.47;94.55
31585;BME280;18191;51.288;12.390;2023-12-07T19:49:04;49247.56;;;-144.47;94.49
31585;BME280;18191;51.288;12.390;2023-12-07T19:53:54;49239.59;;;-144.47;95.43
31585;BME280;18191;51.288;12.390;2023-12-07T19:58:45;49247.56;;;-144.47;95.75
31585;BME280;18191;51.288;12.390;2023-12-07T20:03:35;49231.63;;;-144.47;96.53
31585;BME280;18191;51.288;12.390;2023-12-07T20:08:25;49231.63;;;-144.47;96.71
31585;BME280;18191;51.288;12.390;2023-12-07T20:13:16;49259.50;;;-144.47;97.77
31585;BME280;18191;51.288;12.390;2023-12-07T20:18:06;49221.69;;;-144.47;97.88
31585;BME280;18191;51.288;12.390;2023-12-07T20:22:57;49235.63;;;-144.47;97.98
31585;BME280;18191;51.288;12.390;2023-12-07T20:27:47;49199.81;;;-144.47;98.15
31585;BME280;18191;51.288;12.390;2023-12-07T20:32:37;49271.44;;;-144.47;98.16
31585;BME280;18191;51.288;12.390;2023-12-07T20:37:28;49227.66;;;-144.47;98.04
31585;BME280;18191;51.288;12.390;2023-12-07T20:42:18;49239.59;;;-144.47;98.64
31585;BME280;18191;51.288;12.390;2023-12-07T20:47:09;49263.47;;;-144.47;98.71
31585;BME280;18191;51.288;12.390;2023-12-07T20:51:59;49271.44;;;-144.47;99.51
31585;BME280;18191;51.288;12.390;2023-12-07T20:56:49;49275.41;;;-144.47;99.63
31585;BME280;18191;51.288;12.390;2023-12-07T21:01:42;49251.53;;;-144.47;98.84
31585;BME280;18191;51.288;12.390;2023-12-07T21:06:32;49233.63;;;-144.47;99.48
31585;BME280;18191;51.288;12.390;2023-12-07T21:11:22;49235.63;;;-144.47;99.33
31585;BME280;18191;51.288;12.390;2023-12-07T21:16:13;49271.44;;;-144.47;99.69
31585;BME280;18191;51.288;12.390;2023-12-07T21:21:03;49235.63;;;-144.47;100.00
31585;BME280;18191;51.288;12.390;2023-12-07T21:25:53;49267.44;;;-144.47;100.00
31585;BME280;18191;51.288;12.390;2023-12-07T21:30:44;49275.41;;;-144.47;100.00
31585;BME280;18191;51.288;12.390;2023-12-07T21:35:34;49215.72;;;-144.47;100.00
31585;BME280;18191;51.288;12.390;2023-12-07T21:40:24;49247.56;;;-144.47;100.00
31585;BME280;18191;51.288;12.390;2023-12-07T21:45:14;49215.72;;;-144.47;100.00
31585;BME280;18191;51.288;12.390;2023-12-07T21:50:05;49227.66;;;-144.47;100.00
31585;BME280;18191;51.288;12.390;2023-12-07T21:54:56;49227.66;;;-144.47;100.00
31585;BME280;18191;51.288;12.390;2023-12-07T21:59:46;49263.47;;;-144.47;100.00
31585;BME280;18191;51.288;12.390;2023-12-07T22:04:39;49251.53;;;-144.47;100.00
31585;BME280;18191;51.288;12.390;2023-12-07T22:09:29;49239.59;;;-144.47;100.00
31585;BME280;18191;51.288;12.390;2023-12-07T22:14:20;49227.66;;;-144.47;100.00
31585;BME280;18191;51.288;12.390;2023-12-07T22:19:14;49243.56;;;-144.47;100.00
31585;BME280;18191;51.288;12.390;2023-12-07T22:24:04;49227.66;;;-144.47;100.00
31585;BME280;18191;51.288;12.390;2023-12-07T22:28:55;49235.63;;;-144.47;100.00
31585;BME280;18191;51.288;12.390;2023-12-07T22:33:45;49213.75;;;-144.47;100.00
31585;BME280;18191;51.288;12.390;2023-12-07T22:38:36;49227.66;;;-144.47;100.00
31585;BME280;18191;51.288;12.390;2023-12-07T22:43:26;49249.53;;;-144.47;100.00
31585;BME280;18191;51.288;12.390;2023-12-07T22:48:16;49257.50;;;-144.47;100.00
31585;BME280;18191;51.288;12.390;2023-12-07T22:53:07;49243.56;;;-144.47;100.00
31585;BME280;18191;51.288;12.390;2023-12-07T22:57:57;49223.69;;;-144.47;100.00
31585;BME280;18191;51.288;12.390;2023-12-07T23:02:48;49263.47;;;-144.47;100.00
31585;BME280;18191;51.288;12.390;2023-12-07T23:07:38;49235.63;;;-144.47;100.00
31585;BME280;18191;51.288;12.390;2023-12-07T23:12:28;49251.53;;;-144.47;100.00
31585;BME280;18191;51.288;12.390;2023-12-07T23:17:19;49219.72;;;-144.47;100.00
31585;BME280;18191;51.288;12.390;2023-12-07T23:22:09;49209.75;;;-144.47;100.00
31585;BME280;18191;51.288;12.390;2023-12-07T23:26:59;49245.56;;;-144.47;100.00
31585;BME280;18191;51.288;12.390;2023-12-07T23:31:49;49255.50;;;-144.47;100.00
31585;BME280;18191;51.288;12.390;2023-12-07T23:36:40;49257.50;;;-144.47;100.00
31585;BME280;18191;51.288;12.390;2023-12-07T23:41:30;49271.44;;;-144.47;100.00
31585;BME280;18191;51.288;12.390;2023-12-07T23:46:20;49231.63;;;-144.47;100.00
31585;BME280;18191;51.288;12.390;2023-12-07T23:51:12;49253.53;;;-144.47;100.00
31585;BME280;18191;51.288;12.390;2023-12-07T23:56:02;49249.53;;;-144.47;100.00
